Time;durP1;ratioP1;P1;durP2;ratioP2;P2;SDS_P1;SDS_P2;PMS_P1;PMS_P2;Temp;Humidity;BMP_temperature;BMP_pressure;BME280_temperature;BME280_humidity;BME280_pressure;Samples;Min_cycle;Max_cycle;Signal;HPM_P1;HPM_P2
2022/11/02 00:00:40;;;;;;;13.23;7.20;;;12.10;99.90;;;;;;5085478;28;20028;-53
2022/11/02 00:03:07;;;;;;;17.63;7.68;;;12.10;99.90;;;;;;5086417;28;20097;-53
2022/11/02 00:05:34;;;;;;;17.83;7.68;;;12.10;99.90;;;;;;5076012;28;20036;-54
2022/11/02 00:08:01;;;;;;;20.80;7.25;;;12.10;99.90;;;;;;5086909;28;20052;-53
2022/11/02 00:10:28;;;;;;;19.67;7.38;;;12.00;99.90;;;;;;5091461;28;20078;-50
2022/11/02 00:12:55;;;;;;;13.80;7.32;;;12.00;99.90;;;;;;5082151;28;20032;-50
2022/11/02 00:15:26;;;;;;;15.35;6.68;;;12.10;99.90;;;;;;5089627;28;20063;-54
2022/11/02 00:17:57;;;;;;;18.17;8.05;;;12.00;99.90;;;;;;5090890;28;20081;-53
2022/11/02 00:20:25;;;;;;;12.23;6.65;;;12.10;99.90;;;;;;5092289;28;20069;-53
2022/11/02 00:22:54;;;;;;;12.48;5.68;;;12.10;99.90;;;;;;5091443;28;20028;-53
2022/11/02 00:25:23;;;;;;;17.40;6.55;;;12.10;99.90;;;;;;5082032;28;20070;-54
2022/11/02 00:27:50;;;;;;;15.05;7.03;;;12.10;99.90;;;;;;5091007;28;20107;-53
2022/11/02 00:30:18;;;;;;;11.18;6.63;;;12.10;99.90;;;;;;5073856;28;20040;-52
2022/11/02 00:32:45;;;;;;;15.35;7.43;;;12.00;99.90;;;;;;5090918;28;20109;-53
2022/11/02 00:35:12;;;;;;;13.65;7.15;;;11.90;99.90;;;;;;5082437;28;20051;-51
2022/11/02 00:37:38;;;;;;;14.85;7.15;;;11.90;99.90;;;;;;5073671;28;20109;-54
2022/11/02 00:40:06;;;;;;;23.90;7.93;;;11.80;99.90;;;;;;5056724;28;20048;-53
2022/11/02 00:42:32;;;;;;;;;;;11.80;99.90;;;;;;5075192;28;20040;-51
2022/11/02 00:44:59;;;;;;;12.98;7.15;;;11.70;99.90;;;;;;5090344;28;19973;-52
2022/11/02 00:47:26;;;;;;;14.93;7.28;;;11.70;99.90;;;;;;5071932;28;20044;-53
2022/11/02 00:49:53;;;;;;;16.55;8.00;;;11.60;99.90;;;;;;5053164;28;20040;-53
2022/11/02 00:52:20;;;;;;;13.32;7.55;;;11.60;99.90;;;;;;5053691;28;20069;-51
2022/11/02 00:54:49;;;;;;;16.55;7.25;;;11.90;99.90;;;;;;5091500;28;20078;-51
2022/11/02 00:57:16;;;;;;;;;;;11.50;99.90;;;;;;5054514;28;20147;-51
2022/11/02 00:59:44;;;;;;;13.10;6.95;;;11.50;99.90;;;;;;5053354;28;20368;-52
2022/11/02 01:02:11;;;;;;;18.40;7.82;;;11.50;99.90;;;;;;5063751;28;20049;-53
2022/11/02 01:04:37;;;;;;;13.18;7.03;;;11.40;99.90;;;;;;5075394;28;20036;-51
2022/11/02 01:07:04;;;;;;;14.63;6.85;;;11.40;99.90;;;;;;5073065;28;20074;-51
2022/11/02 01:09:32;;;;;;;17.50;7.88;;;11.30;99.90;;;;;;5089028;28;20028;-52
2022/11/02 01:11:58;;;;;;;;;;;11.30;99.90;;;;;;5055007;28;20037;-54
2022/11/02 01:14:25;;;;;;;21.60;7.00;;;11.30;99.90;;;;;;5051863;28;20404;-55
2022/11/02 01:16:52;;;;;;;15.88;7.15;;;11.30;99.90;;;;;;5088533;28;20090;-52
2022/11/02 01:19:19;;;;;;;16.63;7.28;;;11.30;99.90;;;;;;5083064;28;20067;-51
2022/11/02 01:21:45;;;;;;;13.98;7.15;;;11.20;99.90;;;;;;5091362;28;20063;-53
2022/11/02 01:24:12;;;;;;;16.08;8.30;;;11.30;99.90;;;;;;5088502;28;20032;-52
2022/11/02 01:26:39;;;;;;;16.45;7.43;;;11.20;99.90;;;;;;5090499;28;20089;-54
2022/11/02 01:29:06;;;;;;;14.25;7.68;;;11.30;99.90;;;;;;5071245;28;20094;-50
2022/11/02 01:31:32;;;;;;;15.82;7.35;;;11.20;99.90;;;;;;5079226;28;20055;-54
2022/11/02 01:34:02;;;;;;;17.17;7.50;;;11.10;99.90;;;;;;5069143;28;20036;-52
2022/11/02 01:36:29;;;;;;;14.30;7.63;;;11.10;99.90;;;;;;5071708;28;20412;-52
2022/11/02 01:38:55;;;;;;;19.58;8.48;;;11.00;99.90;;;;;;5054933;28;20044;-52
2022/11/02 01:41:22;;;;;;;22.33;8.57;;;10.90;99.90;;;;;;5080224;28;20158;-52
2022/11/02 01:43:53;;;;;;;16.95;7.70;;;10.90;99.90;;;;;;5070319;28;20053;-51
2022/11/02 01:46:24;;;;;;;20.13;8.13;;;10.80;99.90;;;;;;5072352;28;20044;-51
2022/11/02 01:49:03;;;;;;;17.42;8.10;;;10.70;99.90;;;;;;5066652;28;20483;-52
2022/11/02 01:51:41;;;;;;;21.17;8.55;;;10.70;99.90;;;;;;5060467;28;20125;-52
2022/11/02 01:54:13;;;;;;;;;;;10.70;99.90;;;;;;5052052;28;20455;-52
2022/11/02 01:56:40;;;;;;;26.13;7.85;;;10.60;99.90;;;;;;5071180;28;20342;-55
2022/11/02 01:59:12;;;;;;;14.57;8.15;;;10.60;99.90;;;;;;5061455;28;20393;-54
2022/11/02 02:01:39;;;;;;;17.33;7.05;;;10.50;99.90;;;;;;5091035;28;20439;-53
2022/11/02 02:04:06;;;;;;;20.48;7.22;;;10.50;99.90;;;;;;5089104;28;20114;-50
2022/11/02 02:06:37;;;;;;;19.20;7.68;;;10.50;99.90;;;;;;5091280;28;20036;-50
2022/11/02 02:09:06;;;;;;;15.90;7.47;;;10.40;99.90;;;;;;5056869;28;20036;-53
2022/11/02 02:11:35;;;;;;;13.60;7.65;;;10.40;99.90;;;;;;5064719;28;20040;-53
2022/11/02 02:14:12;;;;;;;17.30;7.53;;;10.40;99.90;;;;;;5089566;28;20074;-54
2022/11/02 02:17:17;;;;;;;15.40;7.72;;;10.30;99.90;;;;;;5071081;28;20143;-53
2022/11/02 02:19:55;;;;;;;22.55;8.35;;;10.30;99.90;;;;;;5066517;28;20040;-53
2022/11/02 02:22:29;;;;;;;;;;;10.30;99.90;;;;;;5069080;28;20044;-54
2022/11/02 02:25:04;;;;;;;18.67;7.97;;;10.20;99.90;;;;;;5064570;28;19920;-50
2022/11/02 02:28:02;;;;;;;16.88;8.75;;;10.20;99.90;;;;;;5063608;28;20052;-51
2022/11/02 02:30:39;;;;;;;13.38;7.18;;;10.20;99.90;;;;;;5052397;28;20079;-51
2022/11/02 02:33:11;;;;;;;23.42;8.43;;;10.20;99.90;;;;;;5075634;28;20082;-54
2022/11/02 02:35:44;;;;;;;19.23;8.43;;;10.10;99.90;;;;;;5070095;28;20155;-53
2022/11/02 02:38:29;;;;;;;17.85;7.63;;;10.10;99.90;;;;;;5051709;28;20049;-51
2022/11/02 02:41:10;;;;;;;21.52;8.02;;;10.10;99.90;;;;;;5056840;28;20151;-52
2022/11/02 02:43:46;;;;;;;18.10;8.30;;;10.00;99.90;;;;;;5044812;28;20049;-52
2022/11/02 02:46:19;;;;;;;19.38;8.38;;;10.00;99.90;;;;;;5051029;28;20074;-54
2022/11/02 02:48:47;;;;;;;26.80;8.23;;;10.00;99.90;;;;;;5054273;28;20052;-53
2022/11/02 02:51:25;;;;;;;15.95;7.85;;;10.00;99.90;;;;;;5061122;28;20123;-54
2022/11/02 02:54:01;;;;;;;16.25;7.68;;;9.90;99.90;;;;;;5072540;28;20048;-53
2022/11/02 02:56:34;;;;;;;15.82;7.55;;;9.90;99.90;;;;;;5079870;28;20168;-55
2022/11/02 02:59:05;;;;;;;22.65;8.57;;;9.90;99.90;;;;;;5082103;28;20043;-55
2022/11/02 03:01:33;;;;;;;18.80;8.30;;;9.90;99.90;;;;;;5085732;28;20047;-55
2022/11/02 03:04:00;;;;;;;18.50;8.68;;;9.80;99.90;;;;;;5074713;28;20131;-50
2022/11/02 03:06:31;;;;;;;16.67;8.85;;;9.80;99.90;;;;;;5074137;28;20052;-53
2022/11/02 03:09:13;;;;;;;18.38;9.07;;;9.80;99.90;;;;;;5060421;28;20102;-51
2022/11/02 03:12:04;;;;;;;15.57;7.85;;;9.70;99.90;;;;;;5070060;28;20040;-54
2022/11/02 03:14:50;;;;;;;16.27;8.18;;;9.80;99.90;;;;;;5075138;28;20048;-51
2022/11/02 03:17:31;;;;;;;18.02;8.45;;;9.80;99.90;;;;;;5083974;28;20055;-51
2022/11/02 03:20:20;;;;;;;16.85;7.75;;;9.80;99.90;;;;;;5070522;28;20052;-53
2022/11/02 03:23:30;;;;;;;19.73;6.57;;;9.90;99.90;;;;;;5074949;28;20067;-54
2022/11/02 03:25:57;;;;;;;;;;;9.80;99.90;;;;;;5075302;28;20083;-53
2022/11/02 03:28:51;;;;;;;13.40;6.93;;;9.80;99.90;;;;;;5066183;28;19925;-55
2022/11/02 03:31:32;;;;;;;11.90;4.70;;;9.70;99.90;;;;;;5065825;28;20048;-54
2022/11/02 03:34:28;;;;;;;12.82;5.30;;;9.70;99.90;;;;;;5071730;28;20412;-51
2022/11/02 03:37:15;;;;;;;10.55;4.43;;;9.60;99.90;;;;;;5054559;28;20202;-53
2022/11/02 03:39:57;;;;;;;10.05;3.17;;;9.50;99.90;;;;;;5058222;28;20040;-52
2022/11/02 03:42:26;;;;;;;11.05;4.50;;;9.40;99.90;;;;;;5074241;28;20135;-54
2022/11/02 03:45:01;;;;;;;12.40;4.38;;;9.40;99.90;;;;;;5084194;22;20044;-56
2022/11/02 03:47:32;;;;;;;13.98;4.07;;;9.50;99.90;;;;;;5077562;28;20088;-57
2022/11/02 03:50:08;;;;;;;14.98;4.38;;;9.40;99.90;;;;;;5112314;28;20484;-57
2022/11/02 03:52:40;;;;;;;9.57;3.97;;;9.40;99.90;;;;;;5088185;28;20504;-59
2022/11/02 03:55:17;;;;;;;9.93;3.53;;;9.40;99.90;;;;;;5104962;28;20042;-57
2022/11/02 03:57:46;;;;;;;13.80;4.43;;;9.30;99.90;;;;;;5095479;28;20039;-57
2022/11/02 04:00:18;;;;;;;10.23;3.72;;;9.30;99.90;;;;;;5079202;28;20805;-58
2022/11/02 04:02:54;;;;;;;;;;;9.20;99.90;;;;;;5074262;28;20032;-60
2022/11/02 04:05:30;;;;;;;6.25;2.95;;;9.20;99.90;;;;;;5074383;28;19927;-57
2022/11/02 04:16:19;;;;;;;8.98;3.33;;;9.00;99.90;;;;;;5089559;28;20044;-58
2022/11/02 04:25:14;;;;;;;19.17;5.00;;;8.80;99.90;;;;;;5090981;28;20420;-55
2022/11/02 04:27:16;;;;;;;7.72;4.18;;;8.80;99.90;;;;;;5075734;28;20040;-58
2022/11/02 04:29:47;;;;;;;10.00;3.70;;;8.80;99.90;;;;;;5076752;28;20040;-57
2022/11/02 04:33:31;;;;;;;;;;;8.80;99.90;;;;;;5077672;28;20047;-55
2022/11/02 04:35:03;;;;;;;14.45;4.53;;;8.80;99.90;;;;;;5090324;28;19920;-58
2022/11/02 04:40:33;;;;;;;11.32;5.18;;;8.80;99.90;;;;;;5080625;28;20040;-53
2022/11/02 04:43:02;;;;;;;10.50;4.95;;;8.80;99.90;;;;;;5085656;28;20127;-59
2022/11/02 04:45:30;;;;;;;10.32;3.88;;;8.70;99.90;;;;;;5085777;28;20123;-56
2022/11/02 04:48:01;;;;;;;8.65;4.13;;;8.80;99.90;;;;;;5077027;28;20568;-56
2022/11/02 04:50:29;;;;;;;10.18;3.63;;;8.80;99.90;;;;;;5083019;28;20508;-55
2022/11/02 04:52:58;;;;;;;8.57;3.25;;;8.80;99.90;;;;;;5086303;28;20054;-56
2022/11/02 04:55:28;;;;;;;13.18;3.55;;;8.80;99.90;;;;;;5089138;28;20044;-58
2022/11/02 04:57:55;;;;;;;10.05;3.63;;;8.90;99.90;;;;;;5089341;28;20113;-57
2022/11/02 05:00:22;;;;;;;;;;;8.80;99.90;;;;;;5079762;28;20545;-58
2022/11/02 05:02:51;;;;;;;11.20;4.45;;;8.80;99.90;;;;;;5074604;28;20373;-57
2022/11/02 05:05:20;;;;;;;13.68;4.22;;;8.80;99.90;;;;;;5070563;28;20123;-58
2022/11/02 05:07:50;;;;;;;10.82;4.20;;;8.80;99.90;;;;;;5087164;28;20557;-56
2022/11/02 05:10:16;;;;;;;7.20;3.42;;;8.70;99.90;;;;;;5085896;28;20050;-56
2022/11/02 05:12:45;;;;;;;10.10;4.93;;;8.70;99.90;;;;;;5081564;28;20036;-56
2022/11/02 05:15:12;;;;;;;;;;;8.80;99.90;;;;;;5086676;28;20039;-56
2022/11/02 05:17:39;;;;;;;10.23;3.75;;;8.80;99.90;;;;;;5087744;28;19920;-57
2022/11/02 05:20:07;;;;;;;15.20;3.97;;;8.80;99.90;;;;;;5076114;28;20044;-57
2022/11/02 05:22:34;;;;;;;7.55;3.70;;;8.90;99.90;;;;;;5087895;28;20033;-57
2022/11/02 05:25:01;;;;;;;10.20;3.95;;;8.90;99.90;;;;;;5084097;28;20044;-57
2022/11/02 05:27:29;;;;;;;12.82;3.70;;;9.00;99.90;;;;;;5084066;28;20043;-57
2022/11/02 05:29:56;;;;;;;8.65;3.58;;;9.00;99.90;;;;;;5083342;28;20087;-57
2022/11/02 05:32:23;;;;;;;15.45;3.70;;;9.00;99.90;;;;;;5072146;28;20065;-57
2022/11/02 05:34:50;;;;;;;11.45;4.18;;;9.10;99.90;;;;;;5088124;28;20127;-57
2022/11/02 05:37:17;;;;;;;10.93;3.58;;;9.00;99.90;;;;;;5088855;28;20063;-57
2022/11/02 05:39:44;;;;;;;;;;;9.00;99.90;;;;;;5077517;28;20135;-57
2022/11/02 05:42:16;;;;;;;7.32;2.92;;;9.00;99.90;;;;;;5086417;28;19951;-57
2022/11/02 05:44:42;;;;;;;9.98;3.85;;;8.90;99.90;;;;;;5080528;28;20043;-58
2022/11/02 05:47:09;;;;;;;12.65;4.32;;;8.90;99.90;;;;;;5070485;28;20123;-56
2022/11/02 05:49:36;;;;;;;9.45;3.10;;;9.00;99.90;;;;;;5075116;28;20086;-56
2022/11/02 05:52:03;;;;;;;7.82;3.17;;;9.00;99.90;;;;;;5070751;28;20080;-56
2022/11/02 05:54:29;;;;;;;14.38;3.13;;;9.10;99.90;;;;;;5079457;28;20047;-56
2022/11/02 05:56:56;;;;;;;8.77;3.10;;;9.20;99.90;;;;;;5090396;28;20486;-56
2022/11/02 05:59:23;;;;;;;12.18;3.58;;;9.10;99.90;;;;;;5082308;28;20043;-57
2022/11/02 06:01:50;;;;;;;8.93;3.70;;;9.10;99.90;;;;;;5080914;28;20052;-57
2022/11/02 06:04:16;;;;;;;10.05;4.22;;;9.10;99.90;;;;;;5079758;28;20603;-55
2022/11/02 06:06:44;;;;;;;11.30;4.68;;;9.20;99.90;;;;;;5082786;28;20428;-54
2022/11/02 06:09:11;;;;;;;14.77;4.95;;;9.20;99.90;;;;;;5085595;28;20059;-54
2022/11/02 06:11:37;;;;;;;11.88;6.25;;;9.50;99.90;;;;;;5090961;28;20066;-57
2022/11/02 06:14:04;;;;;;;13.18;6.03;;;9.30;99.90;;;;;;5079131;28;20120;-56
2022/11/02 06:16:31;;;;;;;15.07;7.15;;;9.40;99.90;;;;;;5069716;28;20044;-56
2022/11/02 06:18:58;;;;;;;16.70;6.10;;;9.40;99.90;;;;;;5078041;28;20041;-54
2022/11/02 06:21:25;;;;;;;8.70;5.07;;;9.40;99.90;;;;;;5068746;28;20040;-57
2022/11/02 06:23:51;;;;;;;13.57;5.60;;;9.40;99.90;;;;;;5085266;28;20449;-54
2022/11/02 06:26:18;;;;;;;10.38;5.15;;;9.50;99.90;;;;;;5078578;28;20131;-57
2022/11/02 06:28:45;;;;;;;13.93;5.43;;;9.50;99.90;;;;;;5078874;28;20044;-55
2022/11/02 06:31:15;;;;;;;15.00;6.07;;;9.50;99.90;;;;;;5086230;28;20135;-55
2022/11/02 06:33:42;;;;;;;16.17;6.10;;;9.60;99.90;;;;;;5090606;28;20083;-56
2022/11/02 06:36:09;;;;;;;15.25;4.90;;;9.60;99.90;;;;;;5074376;28;20082;-57
2022/11/02 06:38:37;;;;;;;9.07;4.53;;;9.70;99.90;;;;;;5091617;28;20075;-57
2022/11/02 06:41:05;;;;;;;6.18;3.60;;;9.60;99.90;;;;;;5094155;28;20072;-57
2022/11/02 06:43:35;;;;;;;12.85;4.97;;;9.60;99.90;;;;;;5088305;28;20040;-57
2022/11/02 06:46:02;;;;;;;9.32;4.20;;;9.70;99.90;;;;;;5078063;28;20041;-57
2022/11/02 06:48:29;;;;;;;11.43;5.03;;;9.80;99.90;;;;;;5071417;28;20068;-56
2022/11/02 06:51:05;;;;;;;11.93;4.43;;;9.90;99.90;;;;;;5072283;28;20044;-56
2022/11/02 06:53:32;;;;;;;11.63;5.00;;;9.90;99.90;;;;;;5090798;28;20497;-58
2022/11/02 06:55:59;;;;;;;;;;;10.00;99.90;;;;;;5089327;28;20609;-55
2022/11/02 06:58:26;;;;;;;17.58;7.85;;;10.10;99.90;;;;;;5093173;28;19966;-55
2022/11/02 07:01:02;;;;;;;14.63;7.10;;;10.10;99.90;;;;;;5092210;28;20048;-55
2022/11/02 07:03:30;;;;;;;19.77;8.15;;;10.10;99.90;;;;;;5093908;28;20044;-57
2022/11/02 07:05:57;;;;;;;;;;;10.10;99.90;;;;;;5089759;28;20040;-56
2022/11/02 07:08:26;;;;;;;14.65;7.20;;;10.20;99.90;;;;;;5074890;28;19964;-57
2022/11/02 07:10:52;;;;;;;14.52;6.68;;;10.20;99.90;;;;;;5079299;28;20040;-57
2022/11/02 07:13:19;;;;;;;12.63;5.88;;;10.20;99.90;;;;;;5094299;28;20074;-58
2022/11/02 07:15:49;;;;;;;13.63;6.25;;;10.30;99.90;;;;;;5090136;28;20069;-57
2022/11/02 07:18:16;;;;;;;17.63;6.60;;;10.40;99.90;;;;;;5094158;28;20032;-57
2022/11/02 07:20:42;;;;;;;15.05;6.10;;;10.50;99.90;;;;;;5086790;28;20064;-55
2022/11/02 07:23:09;;;;;;;13.45;6.15;;;10.50;99.90;;;;;;5083122;28;20128;-57
2022/11/02 07:25:36;;;;;;;11.38;6.05;;;10.50;99.90;;;;;;5092668;28;20040;-57
2022/11/02 07:28:03;;;;;;;12.77;5.97;;;10.50;99.90;;;;;;5089743;28;20044;-57
2022/11/02 07:30:33;;;;;;;17.73;6.22;;;10.60;99.90;;;;;;5092499;28;20048;-56
2022/11/02 07:33:00;;;;;;;13.82;5.82;;;10.60;99.90;;;;;;5093696;28;20076;-56
2022/11/02 07:35:27;;;;;;;;;;;10.60;99.90;;;;;;5089937;28;20050;-56
2022/11/02 07:37:59;;;;;;;14.02;6.30;;;10.60;99.90;;;;;;5092676;28;19982;-57
2022/11/02 07:40:27;;;;;;;13.50;6.32;;;10.60;99.90;;;;;;5087101;28;20468;-56
2022/11/02 07:42:55;;;;;;;16.30;6.40;;;10.70;99.90;;;;;;5086369;28;20047;-56
2022/11/02 07:45:31;;;;;;;17.90;6.47;;;10.70;99.90;;;;;;5073951;28;20118;-55
2022/11/02 07:47:58;;;;;;;12.18;6.60;;;10.70;99.90;;;;;;5071014;28;20086;-56
2022/11/02 07:50:25;;;;;;;17.05;6.68;;;10.60;99.90;;;;;;5088848;28;20071;-55
2022/11/02 07:52:55;;;;;;;11.02;6.13;;;10.50;99.90;;;;;;5089342;28;20040;-57
2022/11/02 07:55:24;;;;;;;17.55;6.28;;;10.50;99.90;;;;;;5081690;28;20082;-57
2022/11/02 07:58:03;;;;;;;19.10;7.65;;;10.50;99.90;;;;;;5072344;28;20095;-58
2022/11/02 08:00:33;;;;;;;17.40;7.88;;;10.60;99.90;;;;;;5090190;28;20082;-57
2022/11/02 08:03:01;;;;;;;15.98;5.88;;;10.70;99.90;;;;;;5087539;28;20068;-56
2022/11/02 08:05:30;;;;;;;16.92;7.03;;;10.90;99.90;;;;;;5072429;28;20040;-57
2022/11/02 08:08:02;;;;;;;15.90;7.22;;;11.00;99.90;;;;;;5094049;28;20048;-57
2022/11/02 08:10:30;;;;;;;12.70;6.30;;;11.00;99.90;;;;;;5104663;28;20042;-58
2022/11/02 08:13:05;;;;;;;13.07;7.25;;;11.10;99.90;;;;;;5091784;28;20044;-56
2022/11/02 08:15:31;;;;;;;12.75;6.85;;;11.20;99.90;;;;;;5099633;28;20086;-58
2022/11/02 08:18:13;;;;;;;12.98;5.97;;;11.40;99.90;;;;;;5077545;28;20071;-56
2022/11/02 08:20:40;;;;;;;13.65;6.30;;;11.40;99.90;;;;;;5091771;28;20052;-58
2022/11/02 08:23:09;;;;;;;19.42;6.45;;;11.40;99.90;;;;;;5100927;28;20067;-58
2022/11/02 08:25:36;;;;;;;23.73;7.05;;;11.50;99.90;;;;;;5087576;28;20044;-58
2022/11/02 08:28:05;;;;;;;12.80;6.28;;;11.50;99.90;;;;;;5101390;28;20078;-58
2022/11/02 08:30:32;;;;;;;12.60;6.10;;;11.50;99.90;;;;;;5112715;28;20046;-56
2022/11/02 08:33:18;;;;;;;17.38;7.25;;;11.50;99.90;;;;;;5095137;28;20064;-58
2022/11/02 08:35:47;;;;;;;14.20;6.63;;;11.60;99.90;;;;;;5067606;28;20094;-58
2022/11/02 08:38:14;;;;;;;14.73;6.45;;;11.90;99.90;;;;;;5106216;28;20035;-58
2022/11/02 08:40:41;;;;;;;16.05;6.43;;;12.00;99.90;;;;;;5104850;28;20108;-58
2022/11/02 08:43:09;;;;;;;;;;;12.20;99.90;;;;;;5098949;28;20094;-58
2022/11/02 08:45:37;;;;;;;14.33;5.93;;;12.20;99.90;;;;;;5091269;28;19963;-58
2022/11/02 08:48:25;;;;;;;13.20;6.43;;;12.30;99.90;;;;;;5091891;28;20135;-58
2022/11/02 08:50:52;;;;;;;16.70;6.57;;;12.50;99.90;;;;;;5086577;28;20036;-58
2022/11/02 08:53:19;;;;;;;12.20;6.00;;;12.70;99.90;;;;;;5073775;28;20071;-58
2022/11/02 08:55:45;;;;;;;16.50;6.07;;;13.00;99.90;;;;;;5070436;28;20041;-58
2022/11/02 08:58:12;;;;;;;13.75;5.55;;;13.30;99.90;;;;;;5089282;28;20090;-58
2022/11/02 09:00:39;;;;;;;10.90;5.32;;;13.40;99.90;;;;;;5087098;28;20115;-59
2022/11/02 09:03:09;;;;;;;15.88;7.47;;;13.30;99.90;;;;;;5090955;28;20082;-59
2022/11/02 09:05:38;;;;;;;15.85;6.25;;;13.10;99.90;;;;;;5091692;28;20083;-59
2022/11/02 09:08:09;;;;;;;14.38;6.00;;;13.00;99.90;;;;;;5112989;28;20105;-58
2022/11/02 09:10:36;;;;;;;13.20;6.25;;;12.80;99.90;;;;;;5090323;28;20059;-58
2022/11/02 09:13:06;;;;;;;13.85;6.63;;;12.70;99.90;;;;;;5091910;28;20082;-58
2022/11/02 09:15:35;;;;;;;18.63;6.40;;;12.80;99.90;;;;;;5087953;28;20450;-58
2022/11/02 09:18:03;;;;;;;16.42;5.85;;;13.00;99.90;;;;;;5092119;28;20024;-59
2022/11/02 09:20:30;;;;;;;20.67;6.28;;;13.20;99.90;;;;;;5089550;28;20040;-59
2022/11/02 09:22:58;;;;;;;12.55;5.82;;;13.40;99.90;;;;;;5088291;28;20029;-58
2022/11/02 09:25:25;;;;;;;15.77;6.18;;;13.40;99.90;;;;;;5091430;28;20083;-58
2022/11/02 09:27:55;;;;;;;16.08;6.07;;;13.50;99.90;;;;;;5071494;28;20094;-58
2022/11/02 09:30:23;;;;;;;10.15;5.50;;;13.60;99.90;;;;;;5080864;28;20047;-59
2022/11/02 09:32:58;;;;;;;16.60;5.90;;;13.70;99.90;;;;;;5112374;28;20425;-59
2022/11/02 09:35:26;;;;;;;12.82;6.05;;;13.80;99.90;;;;;;5096935;28;20063;-58
2022/11/02 09:37:53;;;;;;;13.43;6.40;;;13.90;99.90;;;;;;5111884;28;20040;-58
2022/11/02 09:40:29;;;;;;;16.23;5.40;;;14.10;99.90;;;;;;5085571;28;20067;-59
2022/11/02 09:43:16;;;;;;;12.68;5.88;;;14.30;99.90;;;;;;5071292;28;20401;-59
2022/11/02 09:46:07;;;;;;;8.45;5.07;;;14.40;99.90;;;;;;5110421;22;20075;-49
2022/11/02 09:49:00;;;;;;;20.13;5.97;;;14.50;99.90;;;;;;5099536;27;20088;-50
2022/11/02 09:51:38;;;;;;;13.38;5.30;;;14.60;99.90;;;;;;5111615;28;20047;-51
2022/11/02 09:54:14;;;;;;;15.55;5.32;;;14.50;99.90;;;;;;5109974;28;20450;-49
2022/11/02 09:56:44;;;;;;;;;;;14.50;99.90;;;;;;5112098;28;20088;-50
2022/11/02 09:59:23;;;;;;;18.05;6.57;;;14.40;99.90;;;;;;5101325;27;19973;-49
2022/11/02 10:02:14;;;;;;;23.10;6.32;;;14.30;99.90;;;;;;5111270;28;20101;-49
2022/11/02 10:04:57;;;;;;;18.20;6.40;;;14.30;99.90;;;;;;5109313;28;20043;-49
2022/11/02 10:07:45;;;;;;;18.38;6.15;;;14.30;99.90;;;;;;5103717;28;20131;-50
2022/11/02 10:10:18;;;;;;;14.52;5.95;;;14.20;99.90;;;;;;5111106;28;20071;-49
2022/11/02 10:13:09;;;;;;;17.42;6.10;;;14.20;99.90;;;;;;5109364;28;20067;-49
2022/11/02 10:15:39;;;;;;;17.17;6.10;;;14.20;99.90;;;;;;5111103;28;20047;-49
2022/11/02 10:18:13;;;;;;;11.45;5.50;;;14.20;99.90;;;;;;5102361;28;20326;-49
2022/11/02 10:20:44;;;;;;;20.23;5.90;;;14.20;99.90;;;;;;5111332;28;20067;-49
2022/11/02 10:23:23;;;;;;;16.35;5.93;;;14.10;99.90;;;;;;5109056;28;20074;-51
2022/11/02 10:25:50;;;;;;;13.77;5.93;;;14.00;99.90;;;;;;5110734;28;20075;-49
2022/11/02 10:28:23;;;;;;;11.00;5.90;;;14.00;99.90;;;;;;5108736;28;20083;-50
2022/11/02 10:30:52;;;;;;;16.27;6.32;;;14.10;99.90;;;;;;5111009;28;20055;-50
2022/11/02 10:33:25;;;;;;;15.55;7.55;;;14.00;99.90;;;;;;5105750;28;20469;-49
2022/11/02 10:36:20;;;;;;;12.23;7.07;;;14.10;99.90;;;;;;5110639;28;20044;-49
2022/11/02 10:38:56;;;;;;;12.05;6.88;;;14.20;99.90;;;;;;5106312;28;20067;-50
2022/11/02 10:41:31;;;;;;;14.55;7.13;;;14.30;99.90;;;;;;5107831;28;20096;-52
2022/11/02 10:44:19;;;;;;;9.88;5.72;;;14.40;99.90;;;;;;5109778;28;20508;-49
2022/11/02 10:47:14;;;;;;;13.27;5.55;;;14.50;99.90;;;;;;5109601;28;20127;-51
2022/11/02 10:50:03;;;;;;;17.63;6.20;;;14.60;99.90;;;;;;5105057;28;20067;-49
2022/11/02 10:52:40;;;;;;;13.23;6.20;;;14.70;99.90;;;;;;5109826;28;20047;-51
2022/11/02 10:55:37;;;;;;;11.95;5.63;;;14.80;99.90;;;;;;5092984;28;20137;-49
2022/11/02 10:58:08;;;;;;;10.73;5.50;;;14.90;99.90;;;;;;5107403;28;20094;-52
2022/11/02 11:00:35;;;;;;;9.32;5.50;;;14.90;99.90;;;;;;5101492;28;20043;-50
2022/11/02 11:03:13;;;;;;;15.10;5.47;;;15.00;99.90;;;;;;5110924;28;20055;-49
2022/11/02 11:05:46;;;;;;;;;;;15.10;99.90;;;;;;5108883;28;20044;-50
2022/11/02 11:08:36;;;;;;;13.57;5.50;;;15.20;99.90;;;;;;5110127;28;19923;-49
2022/11/02 11:11:16;;;;;;;11.50;5.70;;;15.30;99.90;;;;;;5109786;28;20111;-50
2022/11/02 11:13:52;;;;;;;16.88;6.65;;;15.30;99.90;;;;;;5109462;28;20035;-50
2022/11/02 11:16:52;;;;;;;12.93;6.35;;;15.30;99.90;;;;;;5102459;28;20485;-50
2022/11/02 11:19:35;;;;;;;14.45;5.90;;;15.40;99.90;;;;;;5093752;28;20084;-52
2022/11/02 11:22:37;;;;;;;17.83;6.05;;;15.70;99.90;;;;;;5112792;27;20096;-49
2022/11/02 11:25:21;;;;;;;14.48;6.10;;;15.70;99.90;;;;;;5111937;27;20118;-50
2022/11/02 11:27:58;;;;;;;14.57;5.93;;;15.70;99.90;;;;;;5113497;28;20051;-52
2022/11/02 11:30:34;;;;;;;9.18;6.15;;;15.70;99.90;;;;;;5112116;27;20116;-49
2022/11/02 11:33:21;;;;;;;16.52;6.00;;;15.80;99.90;;;;;;5113058;28;20085;-51
2022/11/02 11:35:50;;;;;;;13.20;6.40;;;15.80;99.90;;;;;;5112472;28;20071;-50
2022/11/02 11:38:20;;;;;;;11.50;6.20;;;15.90;99.90;;;;;;5110942;27;20036;-50
2022/11/02 11:40:52;;;;;;;11.10;5.50;;;15.90;99.90;;;;;;5107114;28;20040;-50
2022/11/02 11:43:23;;;;;;;14.00;5.95;;;16.00;99.90;;;;;;5113104;28;20096;-50
2022/11/02 11:46:00;;;;;;;15.23;5.72;;;16.10;99.90;;;;;;5112076;28;20445;-51
2022/11/02 11:48:39;;;;;;;13.20;6.03;;;16.10;99.90;;;;;;5112349;27;20036;-50
2022/11/02 11:51:29;;;;;;;12.18;4.53;;;16.10;99.90;;;;;;5113997;28;20147;-51
2022/11/02 11:54:23;;;;;;;9.27;3.83;;;16.10;99.90;;;;;;5111926;28;20097;-51
2022/11/02 11:57:28;;;;;;;7.82;3.00;;;16.10;99.90;;;;;;5114110;28;20048;-49
2022/11/02 11:59:57;;;;;;;7.53;3.30;;;16.20;99.90;;;;;;5030007;28;20052;-51
2022/11/02 12:02:29;;;;;;;7.38;3.63;;;16.40;99.90;;;;;;5112219;28;20051;-49
2022/11/02 12:05:16;;;;;;;7.85;3.08;;;16.60;99.90;;;;;;5112557;28;20423;-50
2022/11/02 12:08:13;;;;;;;6.30;2.33;;;16.50;99.90;;;;;;5111173;27;20585;-52
2022/11/02 12:11:19;;;;;;;5.38;2.22;;;16.50;99.90;;;;;;5105517;28;20504;-50
2022/11/02 12:14:20;;;;;;;12.00;2.03;;;16.50;99.90;;;;;;5111308;28;20085;-50
2022/11/02 12:17:01;;;;;;;4.88;1.83;;;16.50;99.90;;;;;;5107793;28;20514;-49
2022/11/02 12:19:37;;;;;;;12.10;2.35;;;16.50;99.90;;;;;;5113010;28;20063;-51
2022/11/02 12:22:19;;;;;;;5.15;1.60;;;16.50;99.90;;;;;;5112442;28;20075;-50
2022/11/02 12:25:10;;;;;;;4.78;2.35;;;16.50;99.90;;;;;;5102994;27;20108;-50
2022/11/02 12:27:58;;;;;;;4.28;1.30;;;16.30;99.90;;;;;;5112015;28;20532;-49
2022/11/02 12:30:32;;;;;;;;;;;16.10;99.90;;;;;;5112581;28;20031;-49
2022/11/02 12:33:10;;;;;;;5.28;1.23;;;16.10;99.90;;;;;;5111213;28;19961;-51
2022/11/02 12:35:44;;;;;;;4.65;1.25;;;15.90;99.90;;;;;;5104874;28;20063;-50
2022/11/02 12:38:17;;;;;;;4.00;1.52;;;15.80;99.90;;;;;;5111205;28;20385;-50
2022/11/02 12:40:46;;;;;;;7.40;1.10;;;15.70;99.90;;;;;;5107733;28;20063;-49
2022/11/02 12:43:34;;;;;;;6.72;1.40;;;15.70;99.90;;;;;;5112497;28;20071;-49
2022/11/02 12:46:09;;;;;;;6.40;1.10;;;15.60;99.90;;;;;;5111278;28;20044;-49
2022/11/02 12:49:02;;;;;;;4.05;1.17;;;15.70;99.90;;;;;;5105578;28;20028;-49
2022/11/02 12:51:33;;;;;;;2.47;1.20;;;15.70;99.90;;;;;;5072394;28;20373;-49
2022/11/02 12:54:29;;;;;;;3.22;1.05;;;15.80;99.90;;;;;;5111156;28;20031;-49
2022/11/02 12:56:56;;;;;;;5.97;1.48;;;15.90;99.90;;;;;;5109634;28;20063;-50
2022/11/02 12:59:32;;;;;;;4.85;1.33;;;15.90;99.90;;;;;;5112430;28;20063;-50
2022/11/02 13:02:19;;;;;;;6.95;1.30;;;15.90;99.90;;;;;;5106571;27;20078;-50
2022/11/02 13:05:00;;;;;;;2.03;0.80;;;15.90;99.90;;;;;;5105200;28;20079;-52
2022/11/02 13:07:37;;;;;;;6.38;1.25;;;15.90;99.90;;;;;;5109904;28;20035;-49
2022/11/02 13:10:26;;;;;;;5.75;1.55;;;15.90;99.90;;;;;;5108151;28;20046;-50
2022/11/02 13:12:57;;;;;;;3.65;1.20;;;15.90;99.90;;;;;;5090980;28;20129;-49
2022/11/02 13:15:26;;;;;;;2.85;1.10;;;15.90;99.90;;;;;;5093568;28;20077;-50
2022/11/02 13:18:02;;;;;;;7.82;1.33;;;15.70;99.90;;;;;;5109867;27;20043;-49
2022/11/02 13:20:40;;;;;;;10.88;1.48;;;15.80;99.90;;;;;;5111212;28;20096;-49
2022/11/02 13:23:32;;;;;;;5.63;1.88;;;15.80;99.90;;;;;;5111481;27;20471;-50
2022/11/02 13:26:19;;;;;;;4.03;1.00;;;15.70;99.90;;;;;;5111197;28;20035;-49
2022/11/02 13:28:56;;;;;;;8.75;1.58;;;15.80;99.90;;;;;;5106121;28;20036;-51
2022/11/02 13:31:33;;;;;;;2.72;1.10;;;15.80;99.90;;;;;;5111307;28;20074;-50
2022/11/02 13:34:05;;;;;;;3.72;0.93;;;15.70;99.90;;;;;;5110455;28;20047;-50